createdAt,value
2022-12-25T00:01:25.611Z,83.34
2022-12-25T00:03:58.639Z,83.52
2022-12-25T00:06:27.917Z,83.36
2022-12-25T00:08:56.353Z,83.50
2022-12-25T00:11:24.300Z,83.53
2022-12-25T00:13:54.173Z,83.62
2022-12-25T00:16:25.308Z,83.62
2022-12-25T00:18:56.335Z,83.51
2022-12-25T00:21:25.134Z,83.57
2022-12-25T00:24:00.043Z,83.54
2022-12-25T00:26:28.398Z,83.44
2022-12-25T00:28:58.901Z,83.41
2022-12-25T00:31:27.883Z,83.41
2022-12-25T00:33:59.222Z,83.54
2022-12-25T00:36:28.212Z,83.57
2022-12-25T00:38:58.519Z,83.59
2022-12-25T00:41:44.601Z,83.72
2022-12-25T00:44:13.781Z,83.63
2022-12-25T00:46:47.051Z,83.81
2022-12-25T00:49:15.934Z,83.74
2022-12-25T00:51:45.231Z,83.93
2022-12-25T00:54:13.161Z,83.93
2022-12-25T00:56:42.712Z,83.77
2022-12-25T00:59:11.138Z,83.71
2022-12-25T01:01:40.606Z,83.68
2022-12-25T01:04:11.703Z,83.99
2022-12-25T01:06:41.856Z,84.09
2022-12-25T01:09:31.959Z,83.87
2022-12-25T01:11:59.525Z,83.79
2022-12-25T01:14:32.306Z,83.96
2022-12-25T01:17:03.695Z,84.13
2022-12-25T01:19:32.430Z,83.96
2022-12-25T01:22:01.073Z,83.71
2022-12-25T01:24:30.322Z,83.60
2022-12-25T01:27:00.332Z,83.58
2022-12-25T01:29:32.988Z,83.58
2022-12-25T01:32:02.195Z,84.02
2022-12-25T01:34:31.036Z,84.27
2022-12-25T01:37:01.571Z,84.36
2022-12-25T01:39:30.116Z,84.38
2022-12-25T01:41:57.973Z,84.56
2022-12-25T01:44:38.082Z,84.66
2022-12-25T01:48:01.244Z,84.20
2022-12-25T01:50:29.524Z,83.77
2022-12-25T01:53:00.913Z,83.66
2022-12-25T01:55:31.493Z,83.79
2022-12-25T01:57:59.245Z,83.74
2022-12-25T02:00:28.321Z,83.50
2022-12-25T02:02:58.531Z,83.54
2022-12-25T02:05:32.401Z,83.64
2022-12-25T02:08:06.458Z,83.51
2022-12-25T02:10:34.337Z,83.62
2022-12-25T02:13:07.755Z,84.02
2022-12-25T02:15:54.557Z,84.34
2022-12-25T02:18:53.844Z,84.29
2022-12-25T02:21:44.081Z,84.38
2022-12-25T02:24:40.448Z,84.14
2022-12-25T02:27:31.325Z,83.55
2022-12-25T02:30:06.935Z,83.58
2022-12-25T02:32:37.538Z,83.74
2022-12-25T02:35:19.940Z,83.66
2022-12-25T02:38:10.800Z,83.34
2022-12-25T02:40:49.747Z,83.50
2022-12-25T02:43:57.019Z,83.56
2022-12-25T02:46:51.662Z,83.61
2022-12-25T02:49:42.632Z,83.71
2022-12-25T02:52:37.798Z,83.90
2022-12-25T02:55:30.413Z,84.22
2022-12-25T02:58:23.913Z,84.54
2022-12-25T03:01:16.365Z,84.78
2022-12-25T03:04:05.600Z,84.54
2022-12-25T03:06:46.849Z,84.17
2022-12-25T03:09:48.712Z,83.98
2022-12-25T03:12:51.962Z,83.60
2022-12-25T03:15:42.005Z,83.64
2022-12-25T03:18:26.413Z,83.63
2022-12-25T03:21:17.339Z,83.84
2022-12-25T03:24:09.666Z,83.74
2022-12-25T03:26:55.799Z,83.51
2022-12-25T03:29:49.911Z,83.51
2022-12-25T03:32:33.691Z,83.57
2022-12-25T03:35:22.518Z,83.60
2022-12-25T03:38:40.934Z,83.69
2022-12-25T03:41:38.716Z,83.61
2022-12-25T03:44:41.490Z,83.87
2022-12-25T03:48:23.816Z,84.13
2022-12-25T03:51:15.628Z,84.49
2022-12-25T03:54:11.965Z,84.29
2022-12-25T03:57:00.731Z,84.41
2022-12-25T03:59:48.927Z,84.38
2022-12-25T04:02:37.392Z,84.44
2022-12-25T04:05:24.225Z,84.47
2022-12-25T04:08:13.182Z,84.54
2022-12-25T04:10:59.546Z,84.76
2022-12-25T04:13:48.395Z,84.83
2022-12-25T04:16:38.048Z,84.69
2022-12-25T04:19:24.433Z,84.59
2022-12-25T04:22:10.801Z,84.48
2022-12-25T04:24:59.042Z,84.17
2022-12-25T04:27:46.331Z,84.05
2022-12-25T04:30:33.409Z,84.23
2022-12-25T04:33:19.888Z,84.38
2022-12-25T04:36:07.601Z,84.77
2022-12-25T04:38:36.792Z,84.65
2022-12-25T04:41:05.063Z,84.48
2022-12-25T04:43:36.365Z,84.38
2022-12-25T04:46:06.435Z,84.20
2022-12-25T04:48:37.923Z,84.39
2022-12-25T04:51:24.061Z,84.50
2022-12-25T04:53:54.038Z,84.35
2022-12-25T04:56:23.792Z,84.72
2022-12-25T04:58:51.717Z,84.70
2022-12-25T05:01:19.475Z,84.82
2022-12-25T05:03:47.323Z,84.34
2022-12-25T05:06:17.071Z,84.55
2022-12-25T05:08:48.093Z,84.54
2022-12-25T05:11:16.680Z,84.49
2022-12-25T05:13:47.966Z,84.59
2022-12-25T05:16:18.686Z,84.26
2022-12-25T05:18:51.220Z,84.18
2022-12-25T05:21:18.933Z,84.28
2022-12-25T05:23:52.944Z,83.91
2022-12-25T05:26:23.992Z,84.21
2022-12-25T05:28:54.695Z,83.87
2022-12-25T05:31:22.655Z,84.13
2022-12-25T05:33:52.862Z,84.14
2022-12-25T05:36:20.988Z,84.28
2022-12-25T05:38:49.991Z,84.79
2022-12-25T05:41:21.200Z,84.45
2022-12-25T05:43:50.325Z,84.60
2022-12-25T05:47:34.786Z,84.43
2022-12-25T05:50:03.923Z,84.33
2022-12-25T05:52:33.143Z,84.64
2022-12-25T05:55:01.907Z,84.84
2022-12-25T05:57:31.611Z,84.84
2022-12-25T05:59:59.498Z,84.69
2022-12-25T06:02:30.173Z,84.42
2022-12-25T06:05:00.010Z,84.47
2022-12-25T06:07:31.321Z,84.51
2022-12-25T06:10:00.595Z,84.52
2022-12-25T06:12:29.057Z,84.71
2022-12-25T06:14:58.266Z,84.59
2022-12-25T06:17:28.846Z,84.82
2022-12-25T06:19:59.768Z,84.99
2022-12-25T06:22:30.102Z,84.67
2022-12-25T06:24:58.820Z,84.47
2022-12-25T06:27:30.011Z,84.45
2022-12-25T06:29:57.839Z,84.59
2022-12-25T06:32:26.518Z,84.77
2022-12-25T06:34:57.574Z,84.70
2022-12-25T06:37:25.664Z,84.65
2022-12-25T06:39:53.423Z,84.66
2022-12-25T06:42:22.308Z,84.54
2022-12-25T06:44:50.765Z,84.76
2022-12-25T06:47:23.197Z,84.88
2022-12-25T06:49:56.320Z,84.89
2022-12-25T06:52:25.777Z,84.85
2022-12-25T06:54:54.009Z,85.13
2022-12-25T06:57:25.184Z,85.19
2022-12-25T06:59:55.591Z,85.05
2022-12-25T07:02:27.734Z,84.97
2022-12-25T07:05:05.579Z,85.06
2022-12-25T07:07:34.257Z,85.17
2022-12-25T07:10:06.309Z,85.43
2022-12-25T07:12:34.328Z,85.41
2022-12-25T07:15:02.105Z,85.34
2022-12-25T07:17:34.144Z,85.04
2022-12-25T07:20:02.137Z,85.00
2022-12-25T07:22:32.512Z,85.04
2022-12-25T07:25:02.756Z,85.13
2022-12-25T07:27:32.559Z,85.31
2022-12-25T07:30:02.263Z,85.31
2022-12-25T07:32:33.124Z,85.36
2022-12-25T07:35:02.607Z,85.02
2022-12-25T07:37:30.268Z,84.67
2022-12-25T07:39:58.644Z,84.56
2022-12-25T07:42:27.447Z,84.29
2022-12-25T07:44:55.541Z,84.54
2022-12-25T07:47:57.752Z,84.59
2022-12-25T07:50:28.545Z,84.66
2022-12-25T07:52:57.321Z,84.78
2022-12-25T07:55:25.305Z,84.71
2022-12-25T07:57:54.037Z,84.65
2022-12-25T08:00:21.954Z,84.63
2022-12-25T08:02:50.562Z,84.61
2022-12-25T08:05:20.217Z,84.88
2022-12-25T08:07:57.002Z,85.09
2022-12-25T08:10:26.555Z,85.22
2022-12-25T08:12:56.133Z,85.06
2022-12-25T08:15:23.716Z,85.05
2022-12-25T08:17:53.258Z,84.99
2022-12-25T08:20:24.607Z,84.91
2022-12-25T08:22:53.565Z,84.98
2022-12-25T08:25:21.551Z,85.06
2022-12-25T08:27:50.976Z,85.06
2022-12-25T08:30:26.697Z,85.19
2022-12-25T08:32:56.828Z,85.11
2022-12-25T08:35:25.966Z,85.06
2022-12-25T08:37:55.141Z,85.00
2022-12-25T08:40:26.279Z,85.04
2022-12-25T08:42:58.064Z,84.88
2022-12-25T08:45:34.708Z,84.84
2022-12-25T08:48:04.076Z,85.01
2022-12-25T08:50:32.565Z,85.17
2022-12-25T08:53:04.000Z,85.28
2022-12-25T08:55:37.399Z,85.30
2022-12-25T08:58:08.037Z,85.23
2022-12-25T09:00:38.217Z,85.43
2022-12-25T09:03:06.996Z,85.45
2022-12-25T09:05:37.197Z,85.12
2022-12-25T09:08:05.625Z,84.95
2022-12-25T09:10:37.309Z,84.57
2022-12-25T09:13:05.492Z,85.14
2022-12-25T09:15:35.912Z,85.08
2022-12-25T09:18:06.207Z,84.84
2022-12-25T09:20:37.820Z,85.11
2022-12-25T09:23:13.343Z,85.06
2022-12-25T09:25:41.812Z,85.10
2022-12-25T09:28:10.153Z,85.15
2022-12-25T09:30:40.238Z,85.27
2022-12-25T09:33:08.632Z,85.48
2022-12-25T09:35:37.293Z,85.48
2022-12-25T09:38:05.974Z,85.36
2022-12-25T09:40:35.101Z,85.42
2022-12-25T09:43:10.724Z,85.06
2022-12-25T09:45:42.862Z,85.17
2022-12-25T09:48:15.866Z,85.22
2022-12-25T09:51:13.766Z,85.13
2022-12-25T09:54:05.082Z,85.06
2022-12-25T09:56:35.720Z,85.26
2022-12-25T09:59:14.008Z,85.32
2022-12-25T10:02:02.397Z,85.62
2022-12-25T10:05:09.522Z,85.57
2022-12-25T10:08:35.587Z,85.60
2022-12-25T10:11:16.966Z,85.40
2022-12-25T10:14:16.820Z,85.50
2022-12-25T10:17:06.834Z,85.60
2022-12-25T10:19:48.920Z,85.55
2022-12-25T10:22:36.167Z,85.42
2022-12-25T10:25:07.782Z,85.50
2022-12-25T10:27:44.516Z,85.64
2022-12-25T10:47:28.148Z,85.71
2022-12-25T10:49:58.623Z,85.62
2022-12-25T10:52:28.813Z,85.61
2022-12-25T10:54:58.350Z,85.67
2022-12-25T10:57:44.824Z,85.65
2022-12-25T11:00:35.344Z,85.55
2022-12-25T11:03:34.343Z,85.43
2022-12-25T11:06:17.030Z,85.21
2022-12-25T11:09:41.888Z,85.12
2022-12-25T11:13:34.159Z,85.12
2022-12-25T11:16:28.924Z,85.16
2022-12-25T11:19:09.807Z,85.39
2022-12-25T11:22:02.163Z,85.46
2022-12-25T11:24:54.920Z,85.52
2022-12-25T11:27:37.102Z,85.57
2022-12-25T11:30:07.029Z,85.47
2022-12-25T11:32:48.026Z,85.46
2022-12-25T11:35:19.972Z,85.74
2022-12-25T11:37:50.790Z,85.54
2022-12-25T11:40:35.813Z,85.55
2022-12-25T11:43:12.934Z,85.51
2022-12-25T11:45:56.179Z,85.28
2022-12-25T11:48:37.084Z,85.31
2022-12-25T11:51:10.837Z,85.53
2022-12-25T11:53:48.456Z,85.51
2022-12-25T11:56:21.786Z,85.64
2022-12-25T11:58:58.041Z,85.75
2022-12-25T12:01:54.615Z,85.72
2022-12-25T12:04:30.892Z,85.81
2022-12-25T12:07:03.675Z,85.86
2022-12-25T12:09:48.227Z,85.72
2022-12-25T12:12:48.523Z,85.72
2022-12-25T12:15:41.267Z,85.71
2022-12-25T12:18:23.719Z,85.81
2022-12-25T12:21:11.274Z,85.89
2022-12-25T12:24:06.954Z,85.59
2022-12-25T12:26:40.724Z,85.68
2022-12-25T12:29:25.535Z,85.74
2022-12-25T12:32:00.262Z,85.86
2022-12-25T12:34:52.844Z,85.83
2022-12-25T12:37:31.559Z,85.84
2022-12-25T12:40:05.088Z,86.04
2022-12-25T12:42:46.145Z,85.99
2022-12-25T12:45:43.544Z,85.91
2022-12-25T12:48:53.452Z,85.97
2022-12-25T12:51:40.567Z,85.80
2022-12-25T12:57:47.589Z,85.83
2022-12-25T13:00:22.565Z,85.97
2022-12-25T13:03:17.490Z,86.12
2022-12-25T13:06:00.797Z,86.09
2022-12-25T13:08:43.993Z,86.17
2022-12-25T13:11:25.197Z,86.04
2022-12-25T13:13:57.289Z,86.35
2022-12-25T13:35:15.325Z,86.24
2022-12-25T13:47:31.849Z,86.90
2022-12-25T13:55:16.803Z,86.86
2022-12-25T14:07:11.991Z,86.77
2022-12-25T14:09:41.817Z,86.86
2022-12-25T14:12:19.075Z,86.75
2022-12-25T14:14:49.685Z,86.96
2022-12-25T14:17:19.479Z,87.00
2022-12-25T14:19:59.848Z,86.76
2022-12-25T14:22:33.938Z,86.82
2022-12-25T14:25:02.932Z,86.82
2022-12-25T14:27:33.169Z,86.74
2022-12-25T14:30:03.594Z,86.89
2022-12-25T14:32:44.243Z,86.97
2022-12-25T14:35:22.962Z,87.06
2022-12-25T14:37:59.741Z,87.18
2022-12-25T14:40:35.868Z,87.20
2022-12-25T14:43:19.932Z,87.31
2022-12-25T14:46:01.094Z,87.15
2022-12-25T14:48:32.276Z,86.94
2022-12-25T14:51:14.863Z,87.02
2022-12-25T14:53:50.145Z,87.09
2022-12-25T14:56:21.920Z,86.90
2022-12-25T14:58:58.816Z,86.98
2022-12-25T15:01:33.726Z,87.09
2022-12-25T15:04:25.503Z,87.45
2022-12-25T15:07:07.070Z,87.02
2022-12-25T15:09:40.012Z,86.99
2022-12-25T15:12:11.407Z,86.95
2022-12-25T15:14:39.934Z,86.98
2022-12-25T15:17:20.754Z,86.96
2022-12-25T15:19:55.012Z,87.13
2022-12-25T15:22:26.598Z,87.16
2022-12-25T15:25:00.629Z,87.35
2022-12-25T15:27:34.895Z,87.13
2022-12-25T15:30:10.142Z,87.26
2022-12-25T15:32:40.493Z,87.09
2022-12-25T15:35:20.703Z,87.25
2022-12-25T15:37:50.624Z,87.28
2022-12-25T15:40:21.086Z,87.31
2022-12-25T15:43:00.779Z,87.20
2022-12-25T15:45:30.544Z,87.07
2022-12-25T15:48:55.367Z,87.18
2022-12-25T15:51:25.285Z,86.99
2022-12-25T15:53:58.806Z,87.17
2022-12-25T15:56:27.763Z,87.24
2022-12-25T15:58:57.795Z,87.29
2022-12-25T16:01:27.686Z,87.34
2022-12-25T16:03:57.954Z,87.28
2022-12-25T16:06:26.497Z,87.20
2022-12-25T16:08:54.590Z,87.18
2022-12-25T16:11:22.910Z,87.35
2022-12-25T16:13:50.559Z,87.22
2022-12-25T16:16:19.856Z,87.42
2022-12-25T16:18:48.423Z,87.27
2022-12-25T16:21:18.996Z,87.37
2022-12-25T16:23:47.567Z,87.30
2022-12-25T16:26:15.755Z,87.39
2022-12-25T16:28:44.460Z,87.47
2022-12-25T16:31:12.327Z,87.33
2022-12-25T16:33:41.811Z,87.38
2022-12-25T16:36:11.583Z,87.33
2022-12-25T16:38:41.106Z,87.47
2022-12-25T16:41:12.193Z,87.56
2022-12-25T16:43:42.501Z,87.52
2022-12-25T16:46:16.538Z,87.47
2022-12-25T16:48:49.196Z,87.72
2022-12-25T16:51:20.746Z,87.58
2022-12-25T16:53:48.605Z,87.73
2022-12-25T16:56:23.147Z,87.51
2022-12-25T16:58:53.075Z,87.55
2022-12-25T17:01:24.033Z,87.72
2022-12-25T17:03:53.445Z,87.75
2022-12-25T17:06:25.979Z,87.74
2022-12-25T17:08:58.902Z,87.73
2022-12-25T17:11:29.564Z,87.91
2022-12-25T17:14:03.128Z,87.77
2022-12-25T17:16:34.711Z,87.72
2022-12-25T17:19:07.919Z,87.98
2022-12-25T17:21:41.704Z,87.86
2022-12-25T17:24:09.965Z,87.97
2022-12-25T17:26:40.637Z,87.76
2022-12-25T17:29:10.286Z,87.87
2022-12-25T17:31:39.670Z,87.97
2022-12-25T17:34:09.281Z,87.84
2022-12-25T17:36:38.037Z,88.02
2022-12-25T17:39:06.635Z,88.22
2022-12-25T17:41:35.396Z,88.12
2022-12-25T17:44:07.112Z,88.21
2022-12-25T17:47:05.597Z,88.21
2022-12-25T17:49:36.335Z,88.02
2022-12-25T17:52:06.552Z,88.01
2022-12-25T17:54:35.279Z,88.08
2022-12-25T17:57:03.769Z,88.05
2022-12-25T17:59:39.702Z,88.18
2022-12-25T18:09:05.463Z,88.35
2022-12-25T18:12:15.829Z,88.32
2022-12-25T18:17:58.680Z,88.45
2022-12-25T18:20:50.563Z,88.51
2022-12-25T18:27:37.513Z,88.50
2022-12-25T18:30:13.281Z,88.50
2022-12-25T18:32:56.086Z,88.49
2022-12-25T18:35:33.750Z,88.41
2022-12-25T18:38:17.967Z,88.57
2022-12-25T18:40:56.716Z,88.63
2022-12-25T18:43:53.620Z,88.57
2022-12-25T18:46:49.150Z,88.65
2022-12-25T18:49:17.720Z,88.79
2022-12-25T18:51:49.610Z,88.61
2022-12-25T18:54:17.841Z,88.73
2022-12-25T18:56:53.399Z,88.92
2022-12-25T18:59:21.868Z,88.79
2022-12-25T19:01:52.713Z,88.91
2022-12-25T19:04:20.945Z,89.02
2022-12-25T19:06:51.565Z,88.87
2022-12-25T19:09:20.220Z,89.02
2022-12-25T19:11:49.448Z,89.17
2022-12-25T19:14:19.684Z,89.20
2022-12-25T19:16:48.928Z,89.10
2022-12-25T19:19:18.492Z,89.19
2022-12-25T19:21:52.424Z,89.16
2022-12-25T19:24:20.612Z,89.06
2022-12-25T19:26:49.327Z,89.27
2022-12-25T19:29:19.025Z,89.10
2022-12-25T19:31:47.876Z,89.20
2022-12-25T19:34:16.438Z,89.17
2022-12-25T19:36:44.861Z,89.32
2022-12-25T19:39:17.329Z,89.45
2022-12-25T19:44:29.750Z,89.37
2022-12-25T19:47:06.182Z,89.33
2022-12-25T19:49:34.100Z,89.24
2022-12-25T19:52:05.260Z,89.43
2022-12-25T19:54:36.915Z,89.38
2022-12-25T19:57:05.591Z,89.42
2022-12-25T19:59:34.139Z,89.49
2022-12-25T20:02:04.554Z,89.54
2022-12-25T20:04:33.212Z,89.52
2022-12-25T20:07:02.913Z,89.43
2022-12-25T20:09:35.739Z,89.54
2022-12-25T20:12:04.650Z,89.70
2022-12-25T20:14:35.920Z,89.76
2022-12-25T20:17:06.611Z,89.76
2022-12-25T20:19:40.160Z,89.75
2022-12-25T20:22:09.888Z,89.74
2022-12-25T20:24:40.597Z,89.97
2022-12-25T20:27:13.150Z,89.90
2022-12-25T20:29:42.914Z,89.69
2022-12-25T20:32:14.681Z,89.97
2022-12-25T20:34:44.731Z,90.12
2022-12-25T20:37:13.579Z,90.07
2022-12-25T20:39:47.940Z,89.99
2022-12-25T20:42:17.134Z,89.99
2022-12-25T20:44:47.579Z,90.04
2022-12-25T20:47:47.753Z,90.10
2022-12-25T20:50:17.959Z,90.12
2022-12-25T20:52:47.094Z,89.97
2022-12-25T20:55:16.322Z,89.93
2022-12-25T20:57:45.075Z,90.06
2022-12-25T21:00:14.737Z,90.13
2022-12-25T21:02:43.782Z,90.06
2022-12-25T21:05:11.815Z,90.41
2022-12-25T21:07:40.260Z,90.27
2022-12-25T21:10:09.777Z,90.35
2022-12-25T21:12:40.578Z,90.34
2022-12-25T21:15:15.008Z,90.32
2022-12-25T21:17:43.296Z,90.49
2022-12-25T21:20:12.167Z,90.56
2022-12-25T21:22:42.146Z,90.47
2022-12-25T21:25:10.392Z,90.67
2022-12-25T21:27:39.069Z,90.42
2022-12-25T21:30:15.433Z,90.58
2022-12-25T21:33:02.709Z,90.57
2022-12-25T21:35:30.924Z,90.34
2022-12-25T21:38:01.466Z,90.73
2022-12-25T21:40:33.394Z,90.63
2022-12-25T21:43:01.329Z,90.73
2022-12-25T21:45:30.248Z,90.63
2022-12-25T21:48:47.652Z,90.63
2022-12-25T21:51:43.635Z,90.61
2022-12-25T21:54:13.248Z,90.70
2022-12-25T21:56:45.473Z,90.73
2022-12-25T21:59:17.292Z,90.82
2022-12-25T22:01:50.418Z,90.69
2022-12-25T22:04:22.961Z,90.64
2022-12-25T22:07:13.727Z,90.71
2022-12-25T22:09:45.053Z,90.79
2022-12-25T22:12:49.736Z,90.85
2022-12-25T22:15:18.799Z,90.97
2022-12-25T22:18:08.556Z,90.85
2022-12-25T22:20:38.355Z,90.81
2022-12-25T22:23:08.286Z,90.95
2022-12-25T22:25:36.559Z,90.81
2022-12-25T22:28:04.270Z,91.20
2022-12-25T22:30:32.085Z,91.14
2022-12-25T22:33:05.605Z,91.16
2022-12-25T22:35:34.299Z,91.07
2022-12-25T22:38:04.775Z,91.36
2022-12-25T22:40:38.457Z,91.50
2022-12-25T22:43:06.032Z,91.42
2022-12-25T22:45:33.749Z,91.43
2022-12-25T22:48:51.475Z,91.27
2022-12-25T22:51:19.262Z,91.49
2022-12-25T22:53:47.036Z,91.34
2022-12-25T22:56:17.601Z,91.37
2022-12-25T22:58:46.419Z,91.45
2022-12-25T23:01:16.897Z,91.48
2022-12-25T23:03:46.427Z,91.48
2022-12-25T23:06:15.398Z,91.47
2022-12-25T23:08:43.533Z,91.45
2022-12-25T23:11:12.385Z,91.48
2022-12-25T23:13:58.797Z,91.46
2022-12-25T23:16:27.044Z,91.38
2022-12-25T23:19:15.343Z,91.63
2022-12-25T23:22:03.019Z,91.66
2022-12-25T23:24:50.843Z,91.84
2022-12-25T23:27:20.544Z,91.57
2022-12-25T23:29:50.808Z,91.96
2022-12-25T23:32:22.242Z,91.94
2022-12-25T23:34:52.135Z,91.91
2022-12-25T23:37:20.184Z,91.94
2022-12-25T23:39:49.795Z,91.84
2022-12-25T23:42:18.035Z,91.59
2022-12-25T23:44:49.474Z,91.78
2022-12-25T23:47:44.583Z,92.02
2022-12-25T23:50:14.947Z,91.66
2022-12-25T23:52:43.621Z,91.87
2022-12-25T23:55:12.761Z,92.03
2022-12-25T23:57:41.476Z,91.91
